This is the latest recevied weather packets stored in our database for station/object KG7BDA. If no packets are shown the sender has not sent any weather packets the latest 10 day(s).
| Time | Temp. | Humidity | Pressure | Rain* | Wind** | Luminosity | Snow |
|---|---|---|---|---|---|---|---|
| 1777735273 | 13.89° C | 52% | 1017.7 hPa | 0 mm | - | - | - |
| 1777734914 | 13.33° C | 55% | 1017.6 hPa | 0 mm | - | - | - |
| 1777734554 | 12.78° C | 56% | 1017.5 hPa | 0 mm | - | - | - |
| 1777734194 | 12.78° C | 55% | 1017.5 hPa | 0 mm | - | - | - |
| 1777733833 | 12.22° C | 56% | 1017.5 hPa | 0 mm | - | - | - |
| 1777733473 | 12.22° C | 57% | 1017.5 hPa | 0 mm | - | - | - |
| 1777733113 | 12.22° C | 57% | 1017.4 hPa | 0 mm | - | - | - |
| 1777732752 | 12.22° C | 58% | 1017.5 hPa | 0 mm | - | - | - |
| 1777732394 | 12.22° C | 59% | 1017.5 hPa | 0 mm | - | - | - |
| 1777732033 | 11.67° C | 57% | 1017.4 hPa | 0 mm | - | - | - |
| 1777731673 | 11.67° C | 57% | 1017.4 hPa | 0 mm | - | - | - |
| 1777731313 | 11.67° C | 53% | 1017.3 hPa | 0 mm | - | - | - |
| 1777730953 | 11.11° C | 58% | 1017.2 hPa | 0 mm | - | - | - |
| 1777730593 | 10.56° C | 59% | 1017.1 hPa | 0 mm | - | - | - |
| 1777730234 | 10° C | 60% | 1017 hPa | 0 mm | - | - | - |
| 1777729874 | 10° C | 60% | 1017 hPa | 0 mm | - | - | - |
| 1777729513 | 10° C | 59% | 1017.1 hPa | 0 mm | - | - | - |
| 1777729152 | 9.44° C | 58% | 1017.1 hPa | 0 mm | - | - | - |
| 1777728792 | 9.44° C | 58% | 1017.2 hPa | 0 mm | - | - | - |
| 1777728433 | 10° C | 56% | 1017.1 hPa | 0 mm | - | - | - |
| 1777728073 | 9.44° C | 57% | 1017.1 hPa | 0 mm | - | - | - |
| 1777727713 | 8.89° C | 59% | 1016.9 hPa | 0 mm | - | - | - |
| 1777727353 | 8.33° C | 60% | 1016.9 hPa | 0 mm | - | - | - |
| 1777726993 | 8.89° C | 57% | 1016.8 hPa | 0 mm | - | - | - |
| 1777726633 | 9.44° C | 53% | 1016.8 hPa | 0 mm | - | - | - |
* Rain latest hour (hover to see other rain measurements)
** Current wind speed in m/s (hover to see current wind gust speed)